Time;durP1;ratioP1;P1;durP2;ratioP2;P2;SDS_P1;SDS_P2;PMS_P1;PMS_P2;Temp;Humidity;BMP_temperature;BMP_pressure;BME280_temperature;BME280_humidity;BME280_pressure;Samples;Min_cycle;Max_cycle;Signal;HPM_P1;HPM_P2
2022/12/30 00:01:50;;;;;;;0.75;0.40;;;7.00;99.90;;;;;;4793323;29;20058;-89
2022/12/30 00:04:25;;;;;;;;;;;;;;;;;;;;;
2022/12/30 00:07:18;;;;;;;0.10;0.05;;;7.00;99.90;;;;;;4793861;29;20489;-89
2022/12/30 00:09:47;;;;;;;0.00;0.00;;;7.00;99.90;;;;;;4808918;29;20057;-88
2022/12/30 00:35:30;;;;;;;0.00;0.00;;;6.80;99.90;;;;;;4793138;29;20054;-88
2022/12/30 00:38:00;;;;;;;0.00;0.00;;;6.80;99.90;;;;;;4777681;29;20063;-89
2022/12/30 00:40:29;;;;;;;0.43;0.43;;;6.80;99.90;;;;;;4793046;29;20055;-89
2022/12/30 00:43:12;;;;;;;0.00;0.00;;;6.70;99.90;;;;;;4778676;29;20093;-89
2022/12/30 00:45:44;;;;;;;0.03;0.03;;;6.70;99.90;;;;;;4792495;29;20047;-89
2022/12/30 00:56:46;;;;;;;0.00;0.00;;;6.60;99.90;;;;;;4793237;29;20058;-89
2022/12/30 00:59:14;;;;;;;0.00;0.00;;;6.60;99.90;;;;;;4792485;29;20078;-88
2022/12/30 01:01:47;;;;;;;1.15;0.20;;;6.60;99.90;;;;;;4807404;29;20055;-89
2022/12/30 01:04:16;;;;;;;1.25;0.75;;;6.60;99.90;;;;;;4792162;29;20051;-88
2022/12/30 01:06:46;;;;;;;8.40;0.80;;;6.60;99.90;;;;;;4792615;29;20385;-89
2022/12/30 01:09:15;;;;;;;0.10;0.10;;;6.50;99.90;;;;;;4777502;29;20059;-89
2022/12/30 01:11:43;;;;;;;0.00;0.00;;;6.50;99.90;;;;;;4792454;29;20059;-89
2022/12/30 01:14:11;;;;;;;0.00;0.00;;;6.50;99.90;;;;;;4792482;29;20187;-88
2022/12/30 01:16:42;;;;;;;0.00;0.00;;;6.50;99.90;;;;;;4792246;29;20046;-89
2022/12/30 01:19:11;;;;;;;1.45;0.38;;;6.50;99.90;;;;;;4778022;29;20043;-89
2022/12/30 01:22:02;;;;;;;0.55;0.55;;;6.50;99.90;;;;;;4792776;29;20115;-88
2022/12/30 01:24:32;;;;;;;0.85;0.85;;;6.50;99.90;;;;;;4777382;29;20059;-88
2022/12/30 01:26:58;;;;;;;0.00;0.00;;;6.60;99.90;;;;;;4792170;29;20556;-88
2022/12/30 01:29:30;;;;;;;0.00;0.00;;;6.50;99.90;;;;;;4792903;29;20051;-88
2022/12/30 01:31:59;;;;;;;0.10;0.10;;;6.40;99.90;;;;;;4793121;29;20065;-88
2022/12/30 01:34:28;;;;;;;0.00;0.00;;;6.40;99.90;;;;;;4796859;29;20382;-89
2022/12/30 01:36:54;;;;;;;0.03;0.00;;;6.40;99.90;;;;;;4829443;29;20051;-88
2022/12/30 01:39:25;;;;;;;0.00;0.00;;;6.40;99.90;;;;;;4809961;29;20501;-89
2022/12/30 01:41:56;;;;;;;0.00;0.00;;;6.40;99.90;;;;;;4818588;29;20488;-89
2022/12/30 01:45:00;;;;;;;1.60;0.55;;;6.50;99.90;;;;;;4802673;29;20078;-88
2022/12/30 01:47:55;;;;;;;0.03;0.03;;;6.40;99.90;;;;;;4797641;30;20051;-89
2022/12/30 01:50:51;;;;;;;0.00;0.00;;;6.30;99.90;;;;;;4785724;29;20055;-88
2022/12/30 01:53:29;;;;;;;0.00;0.00;;;6.30;99.90;;;;;;4801015;29;20055;-89
2022/12/30 01:56:04;;;;;;;0.45;0.28;;;6.30;99.90;;;;;;4796499;29;20054;-88
2022/12/30 01:58:37;;;;;;;0.25;0.22;;;6.30;99.90;;;;;;4792385;29;20133;-89
2022/12/30 02:01:10;;;;;;;0.20;0.20;;;6.30;99.90;;;;;;4776765;29;20050;-89
2022/12/30 02:03:48;;;;;;;0.00;0.00;;;6.30;99.90;;;;;;4792323;29;20103;-89
2022/12/30 02:06:20;;;;;;;2.28;0.55;;;6.30;99.90;;;;;;4792289;29;20092;-89
2022/12/30 02:08:51;;;;;;;0.08;0.08;;;6.30;99.90;;;;;;4792013;29;20055;-89
2022/12/30 02:11:17;;;;;;;0.35;0.35;;;6.30;99.90;;;;;;4791767;29;20096;-89
2022/12/30 02:13:46;;;;;;;0.00;0.00;;;6.30;99.90;;;;;;4791434;29;20046;-89
2022/12/30 02:16:15;;;;;;;2.17;1.00;;;6.30;99.90;;;;;;4791351;29;20134;-89
2022/12/30 02:18:55;;;;;;;0.85;0.03;;;6.20;99.90;;;;;;4776342;29;20051;-89
2022/12/30 02:21:53;;;;;;;0.00;0.00;;;6.20;99.90;;;;;;4777228;29;20061;-89
2022/12/30 02:24:48;;;;;;;0.47;0.20;;;6.20;99.90;;;;;;4777153;29;20127;-89
2022/12/30 02:27:47;;;;;;;0.10;0.10;;;6.20;99.90;;;;;;4776017;29;20051;-89
2022/12/30 02:30:40;;;;;;;0.00;0.00;;;6.20;99.90;;;;;;4776095;29;20586;-89
2022/12/30 02:33:22;;;;;;;0.40;0.40;;;6.20;99.90;;;;;;4776968;29;20084;-89
2022/12/30 02:35:54;;;;;;;3.50;0.43;;;6.20;99.90;;;;;;4791803;29;20103;-90
2022/12/30 02:38:52;;;;;;;;;;;;;;;;;;;;;
2022/12/30 02:44:36;;;;;;;0.00;0.00;;;6.20;99.90;;;;;;4795245;29;20432;-89
2022/12/30 02:47:31;;;;;;;0.00;0.00;;;6.10;99.90;;;;;;4794684;29;20050;-89
2022/12/30 02:52:47;;;;;;;0.00;0.00;;;6.00;99.90;;;;;;4794731;29;20511;-89
2022/12/30 02:55:28;;;;;;;;;;;;;;;;;;;;;
2022/12/30 02:58:03;;;;;;;0.00;0.00;;;5.90;99.90;;;;;;4794938;29;20051;-90
2022/12/30 03:04:30;;;;;;;1.27;0.47;;;5.90;99.90;;;;;;4794440;29;20050;-89
2022/12/30 03:07:06;;;;;;;0.00;0.00;;;5.90;99.90;;;;;;4777563;29;20466;-89
2022/12/30 03:13:18;;;;;;;0.10;0.10;;;5.80;99.90;;;;;;4810458;29;20055;-89
2022/12/30 03:16:20;;;;;;;0.75;0.60;;;5.80;99.90;;;;;;4773033;29;20127;-89
2022/12/30 03:18:50;;;;;;;0.00;0.00;;;5.80;99.90;;;;;;4794368;29;20108;-89
2022/12/30 03:21:20;;;;;;;0.00;0.00;;;5.80;99.90;;;;;;4794540;29;20111;-89
2022/12/30 03:29:28;;;;;;;0.00;0.00;;;5.80;99.90;;;;;;4794386;29;20058;-89
2022/12/30 03:31:55;;;;;;;0.10;0.10;;;5.70;99.90;;;;;;4794543;29;20050;-90
2022/12/30 03:34:42;;;;;;;1.02;1.00;;;5.70;99.90;;;;;;4794032;29;20511;-90
2022/12/30 03:37:51;;;;;;;0.13;0.13;;;5.70;99.90;;;;;;4793552;29;20092;-89
2022/12/30 03:40:26;;;;;;;0.40;0.30;;;5.60;99.90;;;;;;4759428;30;20070;-89
2022/12/30 03:42:59;;;;;;;0.00;0.00;;;5.60;99.90;;;;;;4814896;29;20067;-89
2022/12/30 03:45:27;;;;;;;0.10;0.00;;;5.60;99.90;;;;;;4764748;29;20050;-89
2022/12/30 03:48:06;;;;;;;0.00;0.00;;;5.60;99.90;;;;;;4792483;29;20058;-89
2022/12/30 03:50:34;;;;;;;0.00;0.00;;;5.60;99.90;;;;;;4793450;29;20455;-89
2022/12/30 03:53:10;;;;;;;;;;;;;;;;;;;;;
2022/12/30 03:55:42;;;;;;;0.00;0.00;;;5.50;99.90;;;;;;4808678;29;20061;-89
2022/12/30 03:58:08;;;;;;;0.00;0.00;;;5.60;99.90;;;;;;4793773;29;20051;-89
2022/12/30 04:00:39;;;;;;;0.00;0.00;;;5.60;99.90;;;;;;4793790;29;20047;-89
2022/12/30 04:03:07;;;;;;;0.00;0.00;;;5.50;99.90;;;;;;4794071;29;20051;-89
2022/12/30 04:05:36;;;;;;;0.00;0.00;;;5.50;99.90;;;;;;4792880;29;20063;-89
2022/12/30 04:08:14;;;;;;;0.00;0.00;;;5.50;99.90;;;;;;4793663;29;20057;-89
2022/12/30 04:10:42;;;;;;;0.32;0.00;;;5.50;99.90;;;;;;4780126;29;20141;-90
2022/12/30 04:13:08;;;;;;;0.00;0.00;;;5.50;99.90;;;;;;4778904;29;20484;-89
2022/12/30 04:15:36;;;;;;;0.05;0.05;;;5.50;99.90;;;;;;4793502;29;20146;-89
2022/12/30 04:18:18;;;;;;;0.00;0.00;;;5.50;99.90;;;;;;4793177;29;20117;-89
2022/12/30 04:20:56;;;;;;;;;;;;;;;;;;;;;
2022/12/30 04:23:54;;;;;;;0.00;0.00;;;5.70;99.90;;;;;;4792922;29;20051;-89
2022/12/30 04:26:36;;;;;;;;;;;;;;;;;;;;;
2022/12/30 04:29:02;;;;;;;0.00;0.00;;;5.50;99.90;;;;;;4793580;29;20467;-89
2022/12/30 04:31:27;;;;;;;0.00;0.00;;;6.10;99.90;;;;;;4808701;29;20062;-89
2022/12/30 04:33:53;;;;;;;0.00;0.00;;;5.50;99.90;;;;;;4792650;29;20051;-89
2022/12/30 04:36:20;;;;;;;0.00;0.00;;;5.50;99.90;;;;;;4793002;29;20054;-90
2022/12/30 04:38:51;;;;;;;0.00;0.00;;;5.50;99.90;;;;;;4792743;29;20479;-89
2022/12/30 04:41:20;;;;;;;0.00;0.00;;;5.60;99.90;;;;;;4777467;29;20051;-89
2022/12/30 04:43:51;;;;;;;0.00;0.00;;;5.50;99.90;;;;;;4792608;29;20069;-89
2022/12/30 04:46:17;;;;;;;0.00;0.00;;;5.50;99.90;;;;;;4778086;29;20059;-90
2022/12/30 04:48:47;;;;;;;0.00;0.00;;;5.40;99.90;;;;;;4792720;29;20049;-89
2022/12/30 04:51:15;;;;;;;0.00;0.00;;;5.40;99.90;;;;;;4793630;29;20046;-89
2022/12/30 04:53:44;;;;;;;0.10;0.10;;;5.40;99.90;;;;;;4778490;29;20461;-90
2022/12/30 04:56:12;;;;;;;0.00;0.00;;;5.40;99.90;;;;;;4793017;29;20160;-90
2022/12/30 04:58:41;;;;;;;0.00;0.00;;;5.40;99.90;;;;;;4792035;29;20523;-90
2022/12/30 05:01:14;;;;;;;0.47;0.47;;;5.60;99.90;;;;;;4791803;29;20054;-90
2022/12/30 05:03:40;;;;;;;0.00;0.00;;;5.40;99.90;;;;;;4777869;29;20046;-90
2022/12/30 05:06:07;;;;;;;2.22;1.17;;;5.40;99.90;;;;;;4792806;29;20062;-89
2022/12/30 05:08:35;;;;;;;0.00;0.00;;;5.40;99.90;;;;;;4792697;29;20104;-90
2022/12/30 05:11:06;;;;;;;0.00;0.00;;;5.40;99.90;;;;;;4791548;29;20568;-90
2022/12/30 05:13:43;;;;;;;0.00;0.00;;;5.40;99.90;;;;;;4791731;29;20050;-90
2022/12/30 05:16:19;;;;;;;;;;;;;;;;;;;;;
2022/12/30 05:18:53;;;;;;;0.00;0.00;;;5.40;99.90;;;;;;4791396;29;20075;-90
2022/12/30 05:21:19;;;;;;;0.15;0.13;;;5.40;99.90;;;;;;4791848;29;20054;-90
2022/12/30 05:26:32;;;;;;;0.00;0.00;;;5.70;99.90;;;;;;4792482;29;20050;-90
2022/12/30 05:28:58;;;;;;;0.00;0.00;;;5.30;99.90;;;;;;4793546;29;20054;-90
2022/12/30 05:31:29;;;;;;;0.00;0.00;;;5.30;99.90;;;;;;4785577;29;20054;-90
2022/12/30 05:33:56;;;;;;;0.00;0.00;;;5.30;99.90;;;;;;4787024;29;20604;-90
2022/12/30 05:36:25;;;;;;;0.38;0.38;;;5.20;99.90;;;;;;4782442;29;20385;-90
2022/12/30 05:38:53;;;;;;;0.00;0.00;;;5.20;99.90;;;;;;4791737;29;20058;-90
2022/12/30 05:41:24;;;;;;;0.00;0.00;;;5.20;99.90;;;;;;4777418;29;20138;-90
2022/12/30 05:43:58;;;;;;;0.00;0.00;;;5.20;99.90;;;;;;4777658;29;20507;-90
2022/12/30 05:46:26;;;;;;;0.00;0.00;;;5.30;99.90;;;;;;4776876;29;20050;-90
2022/12/30 05:48:52;;;;;;;1.38;0.10;;;5.20;99.90;;;;;;4777451;29;20054;-90
2022/12/30 05:51:25;;;;;;;0.85;0.82;;;5.20;99.90;;;;;;4792326;29;20058;-90
2022/12/30 05:53:51;;;;;;;0.00;0.00;;;5.20;99.90;;;;;;4792026;29;20055;-90
2022/12/30 05:56:17;;;;;;;0.00;0.00;;;5.30;99.90;;;;;;4791432;29;20061;-90
2022/12/30 05:58:43;;;;;;;0.70;0.45;;;5.20;99.90;;;;;;4807024;29;20404;-89
2022/12/30 06:01:13;;;;;;;0.00;0.00;;;5.10;99.90;;;;;;4806410;29;20047;-89
2022/12/30 06:03:39;;;;;;;2.10;0.30;;;5.10;99.90;;;;;;4778247;29;20088;-90
2022/12/30 06:06:07;;;;;;;0.00;0.00;;;5.40;99.90;;;;;;4791888;29;20477;-90
2022/12/30 06:08:46;;;;;;;;;;;;;;;;;;;;;
2022/12/30 06:11:23;;;;;;;0.10;0.00;;;5.40;99.90;;;;;;4792536;29;20058;-90
2022/12/30 06:13:54;;;;;;;0.45;0.32;;;5.10;99.90;;;;;;4810797;29;20057;-90
2022/12/30 06:16:23;;;;;;;0.00;0.00;;;5.10;99.90;;;;;;4795205;29;20088;-91
2022/12/30 06:18:58;;;;;;;0.20;0.20;;;5.60;99.90;;;;;;4780626;29;20058;-90
2022/12/30 06:21:33;;;;;;;0.05;0.05;;;5.30;99.90;;;;;;4781246;29;20077;-91
2022/12/30 06:24:04;;;;;;;0.05;0.05;;;5.10;99.90;;;;;;4795618;29;20055;-90
2022/12/30 06:26:38;;;;;;;0.05;0.05;;;5.10;99.90;;;;;;4795531;29;20089;-91
2022/12/30 06:29:14;;;;;;;1.75;0.47;;;5.10;99.90;;;;;;4780500;29;20117;-91
2022/12/30 06:31:44;;;;;;;0.43;0.10;;;5.10;99.90;;;;;;4795938;29;20154;-91
2022/12/30 06:34:12;;;;;;;0.20;0.20;;;5.50;99.90;;;;;;4784316;29;20046;-90
2022/12/30 06:36:38;;;;;;;0.00;0.00;;;5.10;99.90;;;;;;4816627;29;20059;-91
2022/12/30 06:39:04;;;;;;;0.40;0.30;;;5.30;99.90;;;;;;4795487;29;20053;-90
2022/12/30 06:41:35;;;;;;;0.00;0.00;;;5.10;99.90;;;;;;4809714;29;20092;-91
2022/12/30 06:44:12;;;;;;;0.90;0.57;;;5.10;99.90;;;;;;4765801;29;20058;-91
2022/12/30 06:46:47;;;;;;;0.00;0.00;;;5.10;99.90;;;;;;4795202;29;20050;-90
2022/12/30 06:49:12;;;;;;;0.00;0.00;;;5.30;99.90;;;;;;4795085;29;20055;-90
2022/12/30 06:51:45;;;;;;;0.10;0.10;;;5.10;99.90;;;;;;4779623;29;20046;-91
2022/12/30 06:54:31;;;;;;;0.20;0.20;;;5.10;99.90;;;;;;4780176;29;20058;-90
2022/12/30 06:57:02;;;;;;;1.77;0.38;;;4.80;99.90;;;;;;4794937;29;20054;-89
2022/12/30 06:59:28;;;;;;;0.00;0.00;;;5.10;99.90;;;;;;4794394;29;20050;-90
2022/12/30 07:01:56;;;;;;;0.10;0.00;;;5.20;99.90;;;;;;4779261;29;20137;-89
2022/12/30 07:04:22;;;;;;;0.00;0.00;;;5.30;99.90;;;;;;4794711;29;20061;-89
2022/12/30 07:06:58;;;;;;;2.78;0.98;;;5.10;99.90;;;;;;4794420;29;20050;-90
2022/12/30 07:09:27;;;;;;;0.63;0.45;;;5.10;99.90;;;;;;4794211;29;20093;-89
2022/12/30 07:11:53;;;;;;;0.10;0.10;;;5.40;99.90;;;;;;4779225;29;20055;-89
2022/12/30 07:14:19;;;;;;;0.13;0.13;;;5.20;99.90;;;;;;4779059;29;20053;-89
2022/12/30 07:16:45;;;;;;;0.00;0.00;;;5.50;99.90;;;;;;4793716;29;20050;-88
2022/12/30 07:19:18;;;;;;;9.63;1.48;;;5.20;99.90;;;;;;4779382;29;20058;-89
2022/12/30 07:21:46;;;;;;;0.20;0.10;;;5.20;99.90;;;;;;4779390;29;20487;-90
2022/12/30 07:24:17;;;;;;;0.47;0.22;;;5.30;99.90;;;;;;4778938;29;20058;-89
2022/12/30 07:26:45;;;;;;;0.20;0.20;;;5.20;99.90;;;;;;4779484;29;20051;-90
2022/12/30 07:29:16;;;;;;;0.00;0.00;;;5.30;99.90;;;;;;4794050;29;20047;-89
2022/12/30 07:31:45;;;;;;;0.28;0.20;;;5.20;99.90;;;;;;4779059;29;20122;-90
2022/12/30 07:34:11;;;;;;;1.00;0.43;;;5.20;99.90;;;;;;4778873;29;20153;-90
2022/12/30 07:36:47;;;;;;;0.00;0.00;;;5.30;99.90;;;;;;4778597;29;20209;-89
2022/12/30 07:39:37;;;;;;;0.45;0.45;;;5.20;99.90;;;;;;4778855;29;20039;-90
2022/12/30 07:42:07;;;;;;;2.08;0.68;;;5.20;99.90;;;;;;4792885;29;20073;-89
2022/12/30 07:44:43;;;;;;;0.00;0.00;;;5.20;99.90;;;;;;4779474;29;20073;-89
2022/12/30 07:47:16;;;;;;;0.00;0.00;;;5.20;99.90;;;;;;4778483;29;20497;-90
2022/12/30 07:49:42;;;;;;;0.00;0.00;;;5.20;99.90;;;;;;4808415;29;20054;-90
2022/12/30 07:52:12;;;;;;;0.00;0.00;;;5.30;99.90;;;;;;4778522;29;20057;-89
2022/12/30 07:54:44;;;;;;;0.00;0.00;;;5.20;99.90;;;;;;4778834;29;20131;-89
2022/12/30 07:57:37;;;;;;;0.00;0.00;;;5.20;99.90;;;;;;4778405;29;20062;-89
2022/12/30 08:00:08;;;;;;;0.00;0.00;;;5.50;99.90;;;;;;4782410;29;20130;-89
2022/12/30 08:02:39;;;;;;;0.13;0.13;;;5.30;99.90;;;;;;4778538;29;20039;-89
2022/12/30 08:05:07;;;;;;;0.70;0.45;;;5.30;99.90;;;;;;4778843;29;20062;-89
2022/12/30 08:07:46;;;;;;;;;;;;;;;;;;;;;
2022/12/30 08:10:19;;;;;;;0.00;0.00;;;5.60;99.90;;;;;;4793751;29;20059;-88
2022/12/30 08:12:50;;;;;;;1.00;0.30;;;5.50;99.90;;;;;;4794020;29;20054;-90
2022/12/30 08:15:26;;;;;;;0.00;0.00;;;5.30;99.90;;;;;;4778649;29;20058;-89
2022/12/30 08:17:57;;;;;;;0.00;0.00;;;5.30;99.90;;;;;;4778674;29;20127;-90
2022/12/30 08:20:27;;;;;;;0.00;0.00;;;5.30;99.90;;;;;;4779231;29;20043;-91
2022/12/30 08:23:07;;;;;;;0.00;0.00;;;5.50;99.90;;;;;;4777958;29;20051;-89
2022/12/30 08:25:53;;;;;;;0.10;0.10;;;5.50;99.90;;;;;;4786885;29;20400;-89
2022/12/30 08:28:22;;;;;;;0.32;0.05;;;5.40;99.90;;;;;;4793493;29;20138;-89
2022/12/30 08:30:50;;;;;;;0.00;0.00;;;5.50;99.90;;;;;;4778075;29;20137;-89
2022/12/30 08:33:28;;;;;;;0.00;0.00;;;5.50;99.90;;;;;;4777690;29;20051;-89
2022/12/30 08:36:10;;;;;;;0.13;0.13;;;5.50;99.90;;;;;;4777381;29;20119;-89
2022/12/30 08:38:51;;;;;;;0.00;0.00;;;5.60;99.90;;;;;;4792635;29;20055;-89
2022/12/30 08:41:26;;;;;;;1.08;0.22;;;5.60;99.90;;;;;;4792433;29;20054;-90
2022/12/30 08:44:04;;;;;;;;;;;;;;;;;;;;;
2022/12/30 08:46:32;;;;;;;2.67;0.38;;;5.60;99.90;;;;;;4792428;29;20904;-89
2022/12/30 08:49:01;;;;;;;0.00;0.00;;;5.90;99.90;;;;;;4777535;29;20141;-89
2022/12/30 08:51:30;;;;;;;3.63;0.80;;;5.70;99.90;;;;;;4777440;29;20515;-88
2022/12/30 08:53:56;;;;;;;0.10;0.00;;;5.90;99.90;;;;;;4791628;29;20047;-88
2022/12/30 08:56:27;;;;;;;3.63;1.02;;;5.80;99.90;;;;;;4778015;29;20060;-88
2022/12/30 08:58:56;;;;;;;0.00;0.00;;;5.90;99.90;;;;;;4777514;29;20115;-89
2022/12/30 09:01:48;;;;;;;;;;;;;;;;;;;;;
2022/12/30 09:04:21;;;;;;;0.00;0.00;;;6.00;99.90;;;;;;4807821;29;20054;-89
2022/12/30 09:09:36;;;;;;;0.00;0.00;;;6.30;99.90;;;;;;4791886;29;20115;-88
2022/12/30 09:12:05;;;;;;;0.28;0.28;;;6.10;99.90;;;;;;4777419;29;20441;-89
2022/12/30 09:14:31;;;;;;;0.00;0.00;;;6.10;99.90;;;;;;4807292;29;20145;-88
2022/12/30 09:16:57;;;;;;;0.20;0.20;;;6.20;99.90;;;;;;4776491;29;20134;-88
2022/12/30 09:19:23;;;;;;;0.00;0.00;;;6.10;99.90;;;;;;4780005;29;20053;-88
2022/12/30 09:21:50;;;;;;;0.00;0.00;;;6.20;99.90;;;;;;4777516;29;20057;-89
2022/12/30 09:24:19;;;;;;;0.00;0.00;;;6.20;99.90;;;;;;4777242;29;20083;-88
2022/12/30 09:26:52;;;;;;;0.00;0.00;;;6.20;99.90;;;;;;4777259;29;20541;-89
2022/12/30 09:29:18;;;;;;;0.00;0.00;;;6.20;99.90;;;;;;4777579;29;20067;-89
2022/12/30 09:31:46;;;;;;;0.00;0.00;;;6.30;99.90;;;;;;4792141;29;20059;-89
2022/12/30 09:34:17;;;;;;;0.00;0.00;;;6.30;99.90;;;;;;4777103;29;20176;-89
2022/12/30 09:36:52;;;;;;;0.00;0.00;;;6.30;99.90;;;;;;4790955;29;20065;-88
2022/12/30 09:39:30;;;;;;;0.20;0.20;;;6.30;99.90;;;;;;4807120;29;20092;-89
2022/12/30 09:45:19;;;;;;;0.80;0.55;;;6.40;99.90;;;;;;4792070;29;20412;-89
2022/12/30 09:47:56;;;;;;;0.00;0.00;;;6.40;99.90;;;;;;4791124;29;20050;-89
2022/12/30 09:50:54;;;;;;;1.00;0.43;;;6.40;99.90;;;;;;4794382;29;20054;-88
2022/12/30 09:53:31;;;;;;;0.57;0.57;;;6.50;99.90;;;;;;4792648;29;20058;-87
2022/12/30 09:56:01;;;;;;;0.00;0.00;;;6.50;99.90;;;;;;4777905;29;20051;-90
2022/12/30 09:58:37;;;;;;;0.47;0.13;;;6.60;99.90;;;;;;4812149;29;20055;-87
2022/12/30 10:01:28;;;;;;;0.00;0.00;;;6.60;99.90;;;;;;4792356;29;20046;-90
2022/12/30 10:04:06;;;;;;;1.10;0.17;;;6.60;99.90;;;;;;4791810;29;20055;-89
2022/12/30 10:06:56;;;;;;;0.00;0.00;;;6.70;99.90;;;;;;4791327;29;20051;-89
2022/12/30 10:09:43;;;;;;;1.27;1.13;;;6.70;99.90;;;;;;4791925;29;20526;-89
2022/12/30 10:12:37;;;;;;;0.35;0.28;;;6.80;99.90;;;;;;4776328;29;20063;-90
2022/12/30 10:15:26;;;;;;;1.65;0.20;;;6.80;99.90;;;;;;4791509;29;20058;-89
2022/12/30 10:18:13;;;;;;;7.47;0.88;;;6.80;99.90;;;;;;4776926;29;20058;-90
2022/12/30 10:21:09;;;;;;;0.00;0.00;;;6.90;99.90;;;;;;4792072;29;20058;-89
2022/12/30 10:23:53;;;;;;;0.17;0.10;;;6.90;99.90;;;;;;4792088;29;20137;-89
2022/12/30 10:29:29;;;;;;;0.57;0.00;;;7.00;99.90;;;;;;4788530;29;20059;-91
2022/12/30 10:32:17;;;;;;;0.00;0.00;;;7.00;99.90;;;;;;4777458;29;20051;-88
2022/12/30 10:35:25;;;;;;;0.00;0.00;;;7.10;99.90;;;;;;4774891;30;20501;-92
2022/12/30 10:41:53;;;;;;;0.60;0.25;;;7.30;99.90;;;;;;4757527;30;20142;-91
2022/12/30 10:44:43;;;;;;;0.00;0.00;;;7.40;99.90;;;;;;4755964;30;20096;-90
2022/12/30 10:51:09;;;;;;;;;;;;;;;;;;;;;
2022/12/30 10:54:00;;;;;;;;;;;;;;;;;;;;;
2022/12/30 10:56:34;;;;;;;1.65;0.30;;;7.60;99.90;;;;;;4755908;30;20056;-89
2022/12/30 10:59:10;;;;;;;6.60;0.90;;;7.70;99.90;;;;;;4756310;30;20062;-89
2022/12/30 11:04:44;;;;;;;0.30;0.30;;;7.70;99.90;;;;;;4759266;30;20058;-90
2022/12/30 11:07:28;;;;;;;;;;;;;;;;;;;;;
2022/12/30 11:09:54;;;;;;;0.10;0.10;;;7.80;99.90;;;;;;4758899;30;20052;-87
2022/12/30 11:15:17;;;;;;;0.00;0.00;;;7.80;99.90;;;;;;4758704;30;20059;-89
2022/12/30 11:18:10;;;;;;;1.75;0.47;;;7.90;99.90;;;;;;4773048;30;20059;-89
2022/12/30 11:21:09;;;;;;;2.25;0.28;;;7.90;99.90;;;;;;4758326;30;20051;-89
2022/12/30 11:24:01;;;;;;;0.00;0.00;;;8.00;99.90;;;;;;4758324;30;20459;-90
2022/12/30 11:27:08;;;;;;;;;;;;;;;;;;;;;
2022/12/30 11:30:02;;;;;;;;;;;;;;;;;;;;;
2022/12/30 11:32:41;;;;;;;0.00;0.00;;;8.10;99.90;;;;;;4776355;30;20055;-89
2022/12/30 11:35:50;;;;;;;0.00;0.00;;;8.20;99.90;;;;;;4776265;30;20051;-91
2022/12/30 11:38:30;;;;;;;0.80;0.55;;;8.20;99.90;;;;;;4790688;29;20062;-89
2022/12/30 11:41:21;;;;;;;0.00;0.00;;;8.20;99.90;;;;;;4793952;29;20142;-89
2022/12/30 11:44:12;;;;;;;0.00;0.00;;;8.20;99.90;;;;;;4793935;29;20514;-89
2022/12/30 11:46:45;;;;;;;6.82;0.10;;;8.30;99.90;;;;;;4778613;29;20047;-88
2022/12/30 11:49:25;;;;;;;0.00;0.00;;;8.30;99.90;;;;;;4790134;30;20058;-88
2022/12/30 11:51:54;;;;;;;0.00;0.00;;;8.30;99.90;;;;;;4776577;30;20059;-89
2022/12/30 11:54:52;;;;;;;0.00;0.00;;;8.20;99.90;;;;;;4760567;30;20055;-89
2022/12/30 11:57:33;;;;;;;0.10;0.03;;;8.30;99.90;;;;;;4761270;30;20055;-88
2022/12/30 12:00:40;;;;;;;0.00;0.00;;;8.30;99.90;;;;;;4763072;30;20043;-88
2022/12/30 12:03:17;;;;;;;0.00;0.00;;;8.40;99.90;;;;;;4775108;30;20413;-88
2022/12/30 12:05:49;;;;;;;0.00;0.00;;;8.30;99.90;;;;;;4760151;30;20124;-88
2022/12/30 12:08:26;;;;;;;0.40;0.40;;;8.40;99.90;;;;;;4759551;30;20055;-88
2022/12/30 12:11:11;;;;;;;0.00;0.00;;;8.40;99.90;;;;;;4759798;30;20051;-88
2022/12/30 12:13:40;;;;;;;;;;;8.40;99.90;;;;;;4760154;30;20055;-88
2022/12/30 12:16:40;;;;;;;0.00;0.00;;;8.40;99.90;;;;;;4761199;30;19925;-87
2022/12/30 12:19:42;;;;;;;0.00;0.00;;;8.40;99.90;;;;;;4759835;30;20078;-88
2022/12/30 12:22:25;;;;;;;0.00;0.00;;;8.40;99.90;;;;;;4775356;30;20560;-88
2022/12/30 12:25:13;;;;;;;0.00;0.00;;;8.40;99.90;;;;;;4760100;30;20122;-87
2022/12/30 12:27:42;;;;;;;0.00;0.00;;;8.50;99.90;;;;;;4760097;30;20051;-87
2022/12/30 12:30:20;;;;;;;0.80;0.00;;;8.50;99.90;;;;;;4759793;30;20089;-88
2022/12/30 12:33:00;;;;;;;0.10;0.10;;;8.50;99.90;;;;;;4759904;30;20051;-88
2022/12/30 12:35:55;;;;;;;0.10;0.00;;;8.50;99.90;;;;;;4760126;30;20504;-88
2022/12/30 12:38:51;;;;;;;0.00;0.00;;;8.50;99.90;;;;;;4759452;30;20475;-88
2022/12/30 12:41:43;;;;;;;0.00;0.00;;;8.50;99.90;;;;;;4759800;30;20059;-88
2022/12/30 12:44:45;;;;;;;0.00;0.00;;;8.40;99.90;;;;;;4775506;30;20062;-89
2022/12/30 12:47:52;;;;;;;0.00;0.00;;;8.60;99.90;;;;;;4759378;30;20058;-88
2022/12/30 12:50:38;;;;;;;0.00;0.00;;;8.60;99.90;;;;;;4774735;30;20063;-88
2022/12/30 12:53:50;;;;;;;0.00;0.00;;;8.60;99.90;;;;;;4759758;30;20139;-88
2022/12/30 12:56:35;;;;;;;0.00;0.00;;;8.60;99.90;;;;;;4759217;30;20055;-88
2022/12/30 12:59:10;;;;;;;0.00;0.00;;;8.60;99.90;;;;;;4759234;30;20047;-89
2022/12/30 13:01:55;;;;;;;1.27;0.63;;;8.60;99.90;;;;;;4759928;30;20489;-88
2022/12/30 13:04:39;;;;;;;0.00;0.00;;;8.70;99.90;;;;;;4759510;30;20066;-87
2022/12/30 13:07:38;;;;;;;0.00;0.00;;;8.70;99.90;;;;;;4759604;30;20382;-88
2022/12/30 13:10:56;;;;;;;3.58;1.13;;;8.70;99.90;;;;;;4774279;30;20055;-87
2022/12/30 13:13:51;;;;;;;0.00;0.00;;;8.70;99.90;;;;;;4771590;30;20512;-88
2022/12/30 13:16:28;;;;;;;0.00;0.00;;;8.70;99.90;;;;;;4758503;30;20059;-87
2022/12/30 13:18:58;;;;;;;0.00;0.00;;;8.70;99.90;;;;;;4759051;30;20159;-88
2022/12/30 13:21:25;;;;;;;0.03;0.00;;;8.70;99.90;;;;;;4773789;30;20090;-88
2022/12/30 13:23:57;;;;;;;0.00;0.00;;;8.80;99.90;;;;;;4758938;30;20504;-87
2022/12/30 13:26:35;;;;;;;0.00;0.00;;;8.80;99.90;;;;;;4780397;29;20047;-86
2022/12/30 13:29:09;;;;;;;0.00;0.00;;;8.80;99.90;;;;;;4773440;29;20062;-86
2022/12/30 13:32:18;;;;;;;0.22;0.10;;;8.80;99.90;;;;;;4791704;29;20043;-87
2022/12/30 13:34:58;;;;;;;0.00;0.00;;;8.80;99.90;;;;;;4791106;29;20561;-87
2022/12/30 13:38:07;;;;;;;0.00;0.00;;;8.80;99.90;;;;;;4790571;29;20094;-86
2022/12/30 13:41:02;;;;;;;4.10;1.02;;;8.80;99.90;;;;;;4783006;29;20065;-87
2022/12/30 13:43:45;;;;;;;0.00;0.00;;;8.90;99.90;;;;;;4776468;29;20054;-87
2022/12/30 13:46:47;;;;;;;0.00;0.00;;;8.80;99.90;;;;;;4806098;29;20142;-88
2022/12/30 13:49:49;;;;;;;0.38;0.38;;;8.90;99.90;;;;;;4807137;29;20212;-88
2022/12/30 13:52:28;;;;;;;0.22;0.22;;;8.90;99.90;;;;;;4788974;29;20146;-89
2022/12/30 13:54:56;;;;;;;2.08;0.57;;;9.00;99.90;;;;;;4791548;29;20051;-88
2022/12/30 13:57:39;;;;;;;0.10;0.00;;;9.00;99.90;;;;;;4791383;29;20055;-87
2022/12/30 14:03:13;;;;;;;0.00;0.00;;;9.10;99.90;;;;;;4786523;29;20066;-88
2022/12/30 14:05:41;;;;;;;0.00;0.00;;;9.10;99.90;;;;;;4791752;29;20059;-87
2022/12/30 14:08:53;;;;;;;;;;;;;;;;;;;;;
2022/12/30 14:11:20;;;;;;;0.05;0.05;;;9.20;99.90;;;;;;4795190;29;20109;-87
2022/12/30 14:14:16;;;;;;;0.00;0.00;;;9.20;99.90;;;;;;4790923;29;20054;-87
2022/12/30 14:16:48;;;;;;;0.13;0.10;;;9.20;99.90;;;;;;4790825;29;20385;-88
2022/12/30 14:19:38;;;;;;;0.00;0.00;;;9.20;99.90;;;;;;4791108;29;20386;-88
2022/12/30 14:22:13;;;;;;;0.00;0.00;;;9.20;99.90;;;;;;4791891;29;20089;-87
2022/12/30 14:24:39;;;;;;;;;;;9.20;99.90;;;;;;4776371;29;20059;-87
2022/12/30 14:27:39;;;;;;;0.00;0.00;;;9.10;99.90;;;;;;4776751;29;19931;-86
2022/12/30 14:30:26;;;;;;;0.00;0.00;;;9.10;99.90;;;;;;4791800;29;20058;-87
2022/12/30 14:33:16;;;;;;;0.00;0.00;;;9.00;99.90;;;;;;4793118;29;20093;-87
2022/12/30 14:36:12;;;;;;;0.15;0.15;;;8.90;99.90;;;;;;4795532;29;20110;-87
2022/12/30 14:38:49;;;;;;;9.75;1.35;;;8.90;99.90;;;;;;4805227;29;20068;-88
2022/12/30 14:41:38;;;;;;;0.00;0.00;;;8.80;99.90;;;;;;4812454;29;20055;-87
2022/12/30 14:44:23;;;;;;;0.00;0.00;;;8.80;99.90;;;;;;4804064;29;20054;-87
2022/12/30 14:46:53;;;;;;;0.00;0.00;;;8.70;99.90;;;;;;4797821;29;20130;-87
2022/12/30 14:49:40;;;;;;;0.00;0.00;;;8.70;99.90;;;;;;4781127;29;20057;-87
2022/12/30 14:52:12;;;;;;;0.30;0.30;;;8.70;99.90;;;;;;4779580;29;20083;-87
2022/12/30 14:54:49;;;;;;;0.10;0.00;;;8.70;99.90;;;;;;4779228;29;20118;-87
2022/12/30 14:57:23;;;;;;;0.00;0.00;;;8.70;99.90;;;;;;4794975;29;20059;-86
2022/12/30 15:00:03;;;;;;;0.00;0.00;;;8.70;99.90;;;;;;4794266;29;20046;-89
2022/12/30 15:02:41;;;;;;;1.30;1.10;;;8.70;99.90;;;;;;4794264;29;20070;-88
2022/12/30 15:05:16;;;;;;;0.00;0.00;;;8.70;99.90;;;;;;4794685;29;20093;-88
2022/12/30 15:07:45;;;;;;;0.10;0.10;;;8.60;99.90;;;;;;4795370;29;20097;-88
2022/12/30 15:10:33;;;;;;;0.00;0.00;;;8.60;99.90;;;;;;4795160;29;20055;-89
2022/12/30 15:13:18;;;;;;;0.00;0.00;;;8.70;99.90;;;;;;4794534;29;20053;-89
2022/12/30 15:16:01;;;;;;;0.00;0.00;;;8.70;99.90;;;;;;4794052;29;20404;-88
2022/12/30 15:18:42;;;;;;;1.13;0.20;;;8.60;99.90;;;;;;4779393;29;20076;-88
2022/12/30 15:21:33;;;;;;;0.00;0.00;;;8.70;99.90;;;;;;4779556;29;20051;-87
2022/12/30 15:24:02;;;;;;;0.00;0.00;;;8.70;99.90;;;;;;4795036;29;20058;-88
2022/12/30 15:26:51;;;;;;;0.00;0.00;;;8.80;99.90;;;;;;4779550;29;20103;-88
2022/12/30 15:29:26;;;;;;;0.00;0.00;;;8.70;99.90;;;;;;4794644;29;20145;-89
2022/12/30 15:32:04;;;;;;;0.00;0.00;;;8.80;99.90;;;;;;4779904;29;20115;-91